Carol City, Florida
Current Conditions -  °F | °C
As of 3:53 AM on Monday 24 Nov 2014 (Local Time) from KOPF Reporting Station
Overcast Overcast  
Wind Chill: 77°   Ceiling: 2100
Heat Index: 78°   Visibility: 10mi
Dew Point: 75°   Wind: 7mph
Humidity: 94%   Direction: 170°S
Pressure: 29.95"   Gusts: NA
Location:  25.94°N, 80.25°W
Report Text: KOPF 240853Z AUTO 17006KT 10SM FEW016 OVC021 25/24 A2995 RMK AO2 SLP141 60000 T02500239 56003
Loading
Personal Weather Stations






























Interactive Weather Map New forecast layout! Learn more

10-Day Weather Forecast

Advertisements
Track Severe Weather on mobile